Pagina principale
METAR-TAF:

METAR-TAF

Aeroporti :

Treviso, Italia

Aeroporto di Treviso-Istrana

latitudine: 45-41N, longitudine: 012-06E, altezza: 45 m

Osservazione

Il bollettino è stato emesso 39 minuti fa, alle 09:55 UTC
Vento calmo
Temperature 21°C
Umidità 53%
Pressione 1018 hPa
Visibilità 10 km o più
nessuna nube inferiore a 1500 m e nessun cumulonembo

METAR: LIPS 210955Z 00000KT CAVOK 21/11 Q1018 RMK SKC VIS MIN 9999 WIND THR26 00000KT WIND THR08 00000KT BLU

Ora: 12:34 (10:34 UTC)

Previsione

Il bollettino è stato emesso 2 ore e 34 minuti fa, alle 08:00 UTC
Previsione valida dal 21 alle 09 UTC al 21 alle 18 UTC
Vento 5 kt da est/nord-est
Visibilità 10 km o più
nessuna nube inferiore a 1500 m e nessun cumulonembo

TAF: LIPS 210800Z 2109/2118 06005KT CAVOK

Osservazioni e previsioni meteorologiche di più di 4000 aeroporti (messaggi METAR e TAF).

Le stazioni disponibili sono rappresentate dai dischi gialli e rossi sulla carta.

Puntare il mouse per vedere il nome della stazione.

Clicca sopra per visualizzare le osservazioni e previsioni meteorologiche.

Per cambiare la mappa : fare clic sui pulsanti verdi con una croce nera per ingrandire, il pulsante verde con un trattino per diminuire, o sulla freccia verde per le mappe adiacenti.


METAR-TAF: